sensor_id;sensor_type;location;lat;lon;timestamp;temperature;humidity
27900;DHT22;15243;50.726;7.080;2023-04-08T00:01:05;8.30;99.90
27900;DHT22;15243;50.726;7.080;2023-04-08T00:03:32;8.20;99.90
27900;DHT22;15243;50.726;7.080;2023-04-08T00:05:59;8.30;99.90
27900;DHT22;15243;50.726;7.080;2023-04-08T00:08:28;8.30;99.90
27900;DHT22;15243;50.726;7.080;2023-04-08T00:10:55;8.40;99.90
27900;DHT22;15243;50.726;7.080;2023-04-08T00:13:22;8.50;99.90
27900;DHT22;15243;50.726;7.080;2023-04-08T00:15:49;8.50;99.90
27900;DHT22;15243;50.726;7.080;2023-04-08T00:18:16;8.40;99.90
27900;DHT22;15243;50.726;7.080;2023-04-08T00:20:43;8.40;99.90
27900;DHT22;15243;50.726;7.080;2023-04-08T00:23:10;8.50;99.90
27900;DHT22;15243;50.726;7.080;2023-04-08T00:25:37;8.40;99.90
27900;DHT22;15243;50.726;7.080;2023-04-08T00:28:05;8.30;99.90
27900;DHT22;15243;50.726;7.080;2023-04-08T00:30:33;8.30;99.90
27900;DHT22;15243;50.726;7.080;2023-04-08T00:33:00;8.30;99.90
27900;DHT22;15243;50.726;7.080;2023-04-08T00:35:27;8.30;99.90
27900;DHT22;15243;50.726;7.080;2023-04-08T00:37:55;8.30;99.90
27900;DHT22;15243;50.726;7.080;2023-04-08T00:40:22;8.30;99.90
27900;DHT22;15243;50.726;7.080;2023-04-08T00:42:48;8.30;99.90
27900;DHT22;15243;50.726;7.080;2023-04-08T00:45:16;8.30;99.90
27900;DHT22;15243;50.726;7.080;2023-04-08T00:47:43;8.30;99.90
27900;DHT22;15243;50.726;7.080;2023-04-08T00:50:10;8.30;99.90
27900;DHT22;15243;50.726;7.080;2023-04-08T00:52:37;8.30;99.90
27900;DHT22;15243;50.726;7.080;2023-04-08T00:55:05;8.30;99.90
27900;DHT22;15243;50.726;7.080;2023-04-08T00:57:32;8.20;99.90
27900;DHT22;15243;50.726;7.080;2023-04-08T00:59:59;8.20;99.90
27900;DHT22;15243;50.726;7.080;2023-04-08T01:02:51;8.30;99.90
27900;DHT22;15243;50.726;7.080;2023-04-08T01:05:27;8.30;99.90
27900;DHT22;15243;50.726;7.080;2023-04-08T01:07:58;8.30;99.90
27900;DHT22;15243;50.726;7.080;2023-04-08T01:10:33;8.20;99.90
27900;DHT22;15243;50.726;7.080;2023-04-08T01:13:01;8.20;99.90
27900;DHT22;15243;50.726;7.080;2023-04-08T01:15:30;8.20;99.90
27900;DHT22;15243;50.726;7.080;2023-04-08T01:17:59;8.20;99.90
27900;DHT22;15243;50.726;7.080;2023-04-08T01:20:28;8.20;99.90
27900;DHT22;15243;50.726;7.080;2023-04-08T01:23:24;8.20;99.90
27900;DHT22;15243;50.726;7.080;2023-04-08T01:25:56;8.10;99.90
27900;DHT22;15243;50.726;7.080;2023-04-08T01:28:25;8.20;99.90
27900;DHT22;15243;50.726;7.080;2023-04-08T01:30:56;8.10;99.90
27900;DHT22;15243;50.726;7.080;2023-04-08T01:33:27;8.10;99.90
27900;DHT22;15243;50.726;7.080;2023-04-08T01:35:55;8.10;99.90
27900;DHT22;15243;50.726;7.080;2023-04-08T01:38:24;8.10;99.90
27900;DHT22;15243;50.726;7.080;2023-04-08T01:40:53;8.10;99.90
27900;DHT22;15243;50.726;7.080;2023-04-08T01:43:22;8.10;99.90
27900;DHT22;15243;50.726;7.080;2023-04-08T01:45:51;8.10;99.90
27900;DHT22;15243;50.726;7.080;2023-04-08T01:48:24;8.10;99.90
27900;DHT22;15243;50.726;7.080;2023-04-08T01:50:53;8.20;99.90
27900;DHT22;15243;50.726;7.080;2023-04-08T01:53:21;8.20;99.90
27900;DHT22;15243;50.726;7.080;2023-04-08T01:55:53;8.10;99.90
27900;DHT22;15243;50.726;7.080;2023-04-08T01:58:23;8.20;99.90
27900;DHT22;15243;50.726;7.080;2023-04-08T02:00:51;8.30;99.90
27900;DHT22;15243;50.726;7.080;2023-04-08T02:03:21;8.20;99.90
27900;DHT22;15243;50.726;7.080;2023-04-08T02:05:49;8.10;99.90
27900;DHT22;15243;50.726;7.080;2023-04-08T02:08:16;8.20;99.90
27900;DHT22;15243;50.726;7.080;2023-04-08T02:10:43;8.10;99.90
27900;DHT22;15243;50.726;7.080;2023-04-08T02:13:10;8.10;99.90
27900;DHT22;15243;50.726;7.080;2023-04-08T02:15:42;8.10;99.90
27900;DHT22;15243;50.726;7.080;2023-04-08T02:18:16;8.10;99.90
27900;DHT22;15243;50.726;7.080;2023-04-08T02:20:51;8.10;99.90
27900;DHT22;15243;50.726;7.080;2023-04-08T02:23:23;8.00;99.90
27900;DHT22;15243;50.726;7.080;2023-04-08T02:25:52;8.00;99.90
27900;DHT22;15243;50.726;7.080;2023-04-08T02:28:21;8.20;99.90
27900;DHT22;15243;50.726;7.080;2023-04-08T02:30:51;8.10;99.90
27900;DHT22;15243;50.726;7.080;2023-04-08T02:33:20;8.00;99.90
27900;DHT22;15243;50.726;7.080;2023-04-08T02:35:49;7.90;99.90
27900;DHT22;15243;50.726;7.080;2023-04-08T02:38:18;7.90;99.90
27900;DHT22;15243;50.726;7.080;2023-04-08T02:40:45;7.90;99.90
27900;DHT22;15243;50.726;7.080;2023-04-08T02:43:12;7.90;99.90
27900;DHT22;15243;50.726;7.080;2023-04-08T02:45:41;7.80;99.90
27900;DHT22;15243;50.726;7.080;2023-04-08T02:48:08;7.80;99.90
27900;DHT22;15243;50.726;7.080;2023-04-08T02:50:36;7.80;99.90
27900;DHT22;15243;50.726;7.080;2023-04-08T02:53:03;8.00;99.90
27900;DHT22;15243;50.726;7.080;2023-04-08T02:55:30;7.90;99.90
27900;DHT22;15243;50.726;7.080;2023-04-08T02:57:57;7.90;99.90
27900;DHT22;15243;50.726;7.080;2023-04-08T03:00:24;7.80;99.90
27900;DHT22;15243;50.726;7.080;2023-04-08T03:02:51;7.80;99.90
27900;DHT22;15243;50.726;7.080;2023-04-08T03:05:18;7.70;99.90
27900;DHT22;15243;50.726;7.080;2023-04-08T03:07:45;7.80;99.90
27900;DHT22;15243;50.726;7.080;2023-04-08T03:10:12;7.80;99.90
27900;DHT22;15243;50.726;7.080;2023-04-08T03:12:39;7.80;99.90
27900;DHT22;15243;50.726;7.080;2023-04-08T03:15:06;7.80;99.90
27900;DHT22;15243;50.726;7.080;2023-04-08T03:17:34;7.80;99.90
27900;DHT22;15243;50.726;7.080;2023-04-08T03:20:01;7.70;99.90
27900;DHT22;15243;50.726;7.080;2023-04-08T03:22:31;7.70;99.90
27900;DHT22;15243;50.726;7.080;2023-04-08T03:24:58;7.80;99.90
27900;DHT22;15243;50.726;7.080;2023-04-08T03:27:25;7.70;99.90
27900;DHT22;15243;50.726;7.080;2023-04-08T03:29:53;7.90;99.90
27900;DHT22;15243;50.726;7.080;2023-04-08T03:32:20;7.90;99.90
27900;DHT22;15243;50.726;7.080;2023-04-08T03:34:47;7.80;99.90
27900;DHT22;15243;50.726;7.080;2023-04-08T03:37:17;7.80;99.90
27900;DHT22;15243;50.726;7.080;2023-04-08T03:39:44;7.80;99.90
27900;DHT22;15243;50.726;7.080;2023-04-08T03:42:12;7.90;99.90
27900;DHT22;15243;50.726;7.080;2023-04-08T03:44:39;7.90;99.90
27900;DHT22;15243;50.726;7.080;2023-04-08T03:47:06;7.80;99.90
27900;DHT22;15243;50.726;7.080;2023-04-08T03:49:33;7.90;99.90
27900;DHT22;15243;50.726;7.080;2023-04-08T03:52:00;7.80;99.90
27900;DHT22;15243;50.726;7.080;2023-04-08T03:54:27;7.80;99.90
27900;DHT22;15243;50.726;7.080;2023-04-08T03:56:54;7.90;99.90
27900;DHT22;15243;50.726;7.080;2023-04-08T03:59:21;7.90;99.90
27900;DHT22;15243;50.726;7.080;2023-04-08T04:01:48;7.90;99.90
27900;DHT22;15243;50.726;7.080;2023-04-08T04:04:17;7.90;99.90
27900;DHT22;15243;50.726;7.080;2023-04-08T04:06:44;7.80;99.90
27900;DHT22;15243;50.726;7.080;2023-04-08T04:09:11;7.70;99.90
27900;DHT22;15243;50.726;7.080;2023-04-08T04:11:38;8.00;99.90
27900;DHT22;15243;50.726;7.080;2023-04-08T04:14:05;7.90;99.90
27900;DHT22;15243;50.726;7.080;2023-04-08T04:16:32;7.80;99.90
27900;DHT22;15243;50.726;7.080;2023-04-08T04:18:58;7.90;99.90
27900;DHT22;15243;50.726;7.080;2023-04-08T04:21:26;7.80;99.90
27900;DHT22;15243;50.726;7.080;2023-04-08T04:23:52;7.80;99.90
27900;DHT22;15243;50.726;7.080;2023-04-08T04:26:19;7.80;99.90
27900;DHT22;15243;50.726;7.080;2023-04-08T04:28:46;7.80;99.90
27900;DHT22;15243;50.726;7.080;2023-04-08T04:31:22;7.70;99.90
27900;DHT22;15243;50.726;7.080;2023-04-08T04:33:49;7.90;99.90
27900;DHT22;15243;50.726;7.080;2023-04-08T04:36:16;7.90;99.90
27900;DHT22;15243;50.726;7.080;2023-04-08T04:38:44;7.80;99.90
27900;DHT22;15243;50.726;7.080;2023-04-08T04:41:12;7.80;99.90
27900;DHT22;15243;50.726;7.080;2023-04-08T04:43:39;7.80;99.90
27900;DHT22;15243;50.726;7.080;2023-04-08T04:46:06;7.70;99.90
27900;DHT22;15243;50.726;7.080;2023-04-08T04:48:35;7.80;99.90
27900;DHT22;15243;50.726;7.080;2023-04-08T04:51:02;7.80;99.90
27900;DHT22;15243;50.726;7.080;2023-04-08T04:53:30;7.70;99.90
27900;DHT22;15243;50.726;7.080;2023-04-08T04:55:57;7.80;99.90
27900;DHT22;15243;50.726;7.080;2023-04-08T04:58:27;7.70;99.90
27900;DHT22;15243;50.726;7.080;2023-04-08T05:00:54;7.80;99.90
27900;DHT22;15243;50.726;7.080;2023-04-08T05:03:22;7.90;99.90
27900;DHT22;15243;50.726;7.080;2023-04-08T05:05:53;7.80;99.90
27900;DHT22;15243;50.726;7.080;2023-04-08T05:08:20;7.70;99.90
27900;DHT22;15243;50.726;7.080;2023-04-08T05:10:48;7.70;99.90
27900;DHT22;15243;50.726;7.080;2023-04-08T05:13:17;7.80;99.90
27900;DHT22;15243;50.726;7.080;2023-04-08T05:15:44;7.80;99.90
27900;DHT22;15243;50.726;7.080;2023-04-08T05:18:12;7.80;99.90
27900;DHT22;15243;50.726;7.080;2023-04-08T05:20:39;7.80;99.90
27900;DHT22;15243;50.726;7.080;2023-04-08T05:23:06;7.80;99.90
27900;DHT22;15243;50.726;7.080;2023-04-08T05:25:33;7.80;99.90
27900;DHT22;15243;50.726;7.080;2023-04-08T05:28:00;7.80;99.90
27900;DHT22;15243;50.726;7.080;2023-04-08T05:30:27;7.80;99.90
27900;DHT22;15243;50.726;7.080;2023-04-08T05:32:54;7.70;99.90
27900;DHT22;15243;50.726;7.080;2023-04-08T05:35:25;7.80;99.90
27900;DHT22;15243;50.726;7.080;2023-04-08T05:37:52;8.00;99.90
27900;DHT22;15243;50.726;7.080;2023-04-08T05:40:20;7.90;99.90
27900;DHT22;15243;50.726;7.080;2023-04-08T05:42:47;7.90;99.90
27900;DHT22;15243;50.726;7.080;2023-04-08T05:45:14;8.00;99.90
27900;DHT22;15243;50.726;7.080;2023-04-08T05:47:42;7.90;99.90
27900;DHT22;15243;50.726;7.080;2023-04-08T05:50:09;7.90;99.90
27900;DHT22;15243;50.726;7.080;2023-04-08T05:52:41;7.90;99.90
27900;DHT22;15243;50.726;7.080;2023-04-08T05:55:10;7.90;99.90
27900;DHT22;15243;50.726;7.080;2023-04-08T05:57:37;7.90;99.90
27900;DHT22;15243;50.726;7.080;2023-04-08T06:00:06;7.90;99.90
27900;DHT22;15243;50.726;7.080;2023-04-08T06:02:34;7.90;99.90
27900;DHT22;15243;50.726;7.080;2023-04-08T06:05:02;8.00;99.90
27900;DHT22;15243;50.726;7.080;2023-04-08T06:07:31;8.10;99.90
27900;DHT22;15243;50.726;7.080;2023-04-08T06:09:58;8.00;99.90
27900;DHT22;15243;50.726;7.080;2023-04-08T06:12:25;8.00;99.90
27900;DHT22;15243;50.726;7.080;2023-04-08T06:14:56;8.20;99.90
27900;DHT22;15243;50.726;7.080;2023-04-08T06:17:22;8.20;99.90
27900;DHT22;15243;50.726;7.080;2023-04-08T06:19:50;8.20;99.90
27900;DHT22;15243;50.726;7.080;2023-04-08T06:22:17;8.30;99.90
27900;DHT22;15243;50.726;7.080;2023-04-08T06:24:46;8.30;99.90
27900;DHT22;15243;50.726;7.080;2023-04-08T06:27:14;8.30;99.90
27900;DHT22;15243;50.726;7.080;2023-04-08T06:29:41;8.30;99.90
27900;DHT22;15243;50.726;7.080;2023-04-08T06:32:09;8.40;99.90
27900;DHT22;15243;50.726;7.080;2023-04-08T06:34:36;8.50;99.90
27900;DHT22;15243;50.726;7.080;2023-04-08T06:37:04;8.60;99.90
27900;DHT22;15243;50.726;7.080;2023-04-08T06:39:32;8.60;99.90
27900;DHT22;15243;50.726;7.080;2023-04-08T06:41:59;8.60;99.90
27900;DHT22;15243;50.726;7.080;2023-04-08T06:44:26;8.70;99.90
27900;DHT22;15243;50.726;7.080;2023-04-08T06:46:53;8.80;99.90
27900;DHT22;15243;50.726;7.080;2023-04-08T06:49:20;8.70;99.90
27900;DHT22;15243;50.726;7.080;2023-04-08T06:51:47;8.70;99.90
27900;DHT22;15243;50.726;7.080;2023-04-08T06:54:14;8.80;99.90
27900;DHT22;15243;50.726;7.080;2023-04-08T06:56:41;8.80;99.90
27900;DHT22;15243;50.726;7.080;2023-04-08T06:59:08;8.80;99.90
27900;DHT22;15243;50.726;7.080;2023-04-08T07:01:35;8.70;99.90
27900;DHT22;15243;50.726;7.080;2023-04-08T07:04:03;8.50;99.90
27900;DHT22;15243;50.726;7.080;2023-04-08T07:06:30;8.50;99.90
27900;DHT22;15243;50.726;7.080;2023-04-08T07:08:57;8.50;99.90
27900;DHT22;15243;50.726;7.080;2023-04-08T07:11:24;8.60;99.90
27900;DHT22;15243;50.726;7.080;2023-04-08T07:13:52;8.60;99.90
27900;DHT22;15243;50.726;7.080;2023-04-08T07:16:19;8.40;99.90
27900;DHT22;15243;50.726;7.080;2023-04-08T07:18:47;8.30;99.90
27900;DHT22;15243;50.726;7.080;2023-04-08T07:21:14;8.40;99.90
27900;DHT22;15243;50.726;7.080;2023-04-08T07:23:43;8.60;99.90
27900;DHT22;15243;50.726;7.080;2023-04-08T07:26:11;8.80;99.90
27900;DHT22;15243;50.726;7.080;2023-04-08T07:28:39;8.80;99.90
27900;DHT22;15243;50.726;7.080;2023-04-08T07:31:14;8.90;99.90
27900;DHT22;15243;50.726;7.080;2023-04-08T07:33:42;8.90;99.90
27900;DHT22;15243;50.726;7.080;2023-04-08T07:36:11;9.10;99.90
27900;DHT22;15243;50.726;7.080;2023-04-08T07:38:39;9.30;99.90
27900;DHT22;15243;50.726;7.080;2023-04-08T07:41:06;9.30;99.90
27900;DHT22;15243;50.726;7.080;2023-04-08T07:43:33;9.30;99.90
27900;DHT22;15243;50.726;7.080;2023-04-08T07:46:03;9.30;99.90
27900;DHT22;15243;50.726;7.080;2023-04-08T07:48:32;9.20;99.90
27900;DHT22;15243;50.726;7.080;2023-04-08T07:51:03;9.40;99.90
27900;DHT22;15243;50.726;7.080;2023-04-08T07:53:36;9.60;99.90
27900;DHT22;15243;50.726;7.080;2023-04-08T07:56:10;9.70;99.90
27900;DHT22;15243;50.726;7.080;2023-04-08T07:58:37;9.60;99.90
27900;DHT22;15243;50.726;7.080;2023-04-08T08:01:04;9.70;99.90
27900;DHT22;15243;50.726;7.080;2023-04-08T08:03:32;9.70;99.90
27900;DHT22;15243;50.726;7.080;2023-04-08T08:05:59;9.70;99.90
27900;DHT22;15243;50.726;7.080;2023-04-08T08:08:27;9.60;99.90
27900;DHT22;15243;50.726;7.080;2023-04-08T08:10:54;9.70;99.90
27900;DHT22;15243;50.726;7.080;2023-04-08T08:13:21;9.70;99.90
27900;DHT22;15243;50.726;7.080;2023-04-08T08:15:51;9.80;99.90
27900;DHT22;15243;50.726;7.080;2023-04-08T08:18:19;9.70;99.90
27900;DHT22;15243;50.726;7.080;2023-04-08T08:20:46;9.70;99.90
27900;DHT22;15243;50.726;7.080;2023-04-08T08:23:13;9.80;99.90
27900;DHT22;15243;50.726;7.080;2023-04-08T08:25:40;9.90;99.90
27900;DHT22;15243;50.726;7.080;2023-04-08T08:28:07;9.90;99.90
27900;DHT22;15243;50.726;7.080;2023-04-08T08:30:34;9.80;99.90
27900;DHT22;15243;50.726;7.080;2023-04-08T08:33:01;9.70;99.90
27900;DHT22;15243;50.726;7.080;2023-04-08T08:35:28;9.70;99.90
27900;DHT22;15243;50.726;7.080;2023-04-08T08:37:55;9.90;99.90
27900;DHT22;15243;50.726;7.080;2023-04-08T08:40:22;10.00;99.90
27900;DHT22;15243;50.726;7.080;2023-04-08T08:42:50;9.80;99.90
27900;DHT22;15243;50.726;7.080;2023-04-08T08:45:21;9.90;99.90
27900;DHT22;15243;50.726;7.080;2023-04-08T08:47:48;10.00;99.90
27900;DHT22;15243;50.726;7.080;2023-04-08T08:50:17;10.10;99.90
27900;DHT22;15243;50.726;7.080;2023-04-08T08:52:48;10.20;99.90
27900;DHT22;15243;50.726;7.080;2023-04-08T08:55:19;10.20;99.90
27900;DHT22;15243;50.726;7.080;2023-04-08T08:58:06;10.40;99.90
27900;DHT22;15243;50.726;7.080;2023-04-08T09:00:38;10.40;99.90
27900;DHT22;15243;50.726;7.080;2023-04-08T09:03:14;10.60;99.90
27900;DHT22;15243;50.726;7.080;2023-04-08T09:08:23;10.90;99.90
27900;DHT22;15243;50.726;7.080;2023-04-08T09:10:51;10.80;99.90
27900;DHT22;15243;50.726;7.080;2023-04-08T09:13:21;10.60;99.90
27900;DHT22;15243;50.726;7.080;2023-04-08T09:16:09;10.60;99.90
27900;DHT22;15243;50.726;7.080;2023-04-08T09:18:37;10.70;99.90
27900;DHT22;15243;50.726;7.080;2023-04-08T09:21:06;10.30;99.90
27900;DHT22;15243;50.726;7.080;2023-04-08T09:23:41;10.50;99.90
27900;DHT22;15243;50.726;7.080;2023-04-08T09:28:37;10.70;99.90
27900;DHT22;15243;50.726;7.080;2023-04-08T09:31:25;11.00;99.90
27900;DHT22;15243;50.726;7.080;2023-04-08T09:33:59;11.10;99.90
27900;DHT22;15243;50.726;7.080;2023-04-08T09:36:27;10.90;99.90
27900;DHT22;15243;50.726;7.080;2023-04-08T09:38:55;11.00;99.90
27900;DHT22;15243;50.726;7.080;2023-04-08T09:41:22;11.00;99.90
27900;DHT22;15243;50.726;7.080;2023-04-08T09:43:52;11.20;99.90
27900;DHT22;15243;50.726;7.080;2023-04-08T09:46:32;11.30;99.90
27900;DHT22;15243;50.726;7.080;2023-04-08T09:49:11;11.30;99.90
27900;DHT22;15243;50.726;7.080;2023-04-08T09:51:50;11.10;99.90
27900;DHT22;15243;50.726;7.080;2023-04-08T09:54:20;11.20;99.90
27900;DHT22;15243;50.726;7.080;2023-04-08T09:56:55;11.30;99.90
27900;DHT22;15243;50.726;7.080;2023-04-08T09:59:28;11.30;99.90
27900;DHT22;15243;50.726;7.080;2023-04-08T10:02:00;11.50;99.90
27900;DHT22;15243;50.726;7.080;2023-04-08T10:04:31;11.50;99.90
27900;DHT22;15243;50.726;7.080;2023-04-08T10:07:03;11.80;99.90
27900;DHT22;15243;50.726;7.080;2023-04-08T10:09:32;11.70;99.90
27900;DHT22;15243;50.726;7.080;2023-04-08T10:12:00;11.60;99.90
27900;DHT22;15243;50.726;7.080;2023-04-08T10:14:28;11.50;99.90
27900;DHT22;15243;50.726;7.080;2023-04-08T10:17:27;11.50;99.90
27900;DHT22;15243;50.726;7.080;2023-04-08T10:19:56;11.50;99.90
27900;DHT22;15243;50.726;7.080;2023-04-08T10:27:44;11.70;99.90
27900;DHT22;15243;50.726;7.080;2023-04-08T10:32:57;11.80;99.90
27900;DHT22;15243;50.726;7.080;2023-04-08T10:35:40;11.80;99.90
27900;DHT22;15243;50.726;7.080;2023-04-08T10:38:08;11.90;99.90
27900;DHT22;15243;50.726;7.080;2023-04-08T10:40:36;11.70;99.90
27900;DHT22;15243;50.726;7.080;2023-04-08T10:43:04;11.80;99.90
27900;DHT22;15243;50.726;7.080;2023-04-08T10:45:33;11.90;99.90
27900;DHT22;15243;50.726;7.080;2023-04-08T10:48:22;11.90;99.90
27900;DHT22;15243;50.726;7.080;2023-04-08T10:51:01;12.00;99.90
27900;DHT22;15243;50.726;7.080;2023-04-08T10:56:05;11.80;99.90
27900;DHT22;15243;50.726;7.080;2023-04-08T10:58:34;11.90;99.90
27900;DHT22;15243;50.726;7.080;2023-04-08T11:01:03;12.00;99.90
27900;DHT22;15243;50.726;7.080;2023-04-08T11:03:32;11.80;99.90
27900;DHT22;15243;50.726;7.080;2023-04-08T11:06:00;11.90;99.90
27900;DHT22;15243;50.726;7.080;2023-04-08T11:08:28;12.20;99.90
27900;DHT22;15243;50.726;7.080;2023-04-08T11:10:58;12.00;99.90
27900;DHT22;15243;50.726;7.080;2023-04-08T11:13:30;12.10;99.90
27900;DHT22;15243;50.726;7.080;2023-04-08T11:15:58;11.90;99.90
27900;DHT22;15243;50.726;7.080;2023-04-08T11:18:26;12.10;99.90
27900;DHT22;15243;50.726;7.080;2023-04-08T11:20:53;12.10;99.90
27900;DHT22;15243;50.726;7.080;2023-04-08T11:23:20;12.40;99.90
27900;DHT22;15243;50.726;7.080;2023-04-08T11:25:49;12.50;99.90
27900;DHT22;15243;50.726;7.080;2023-04-08T11:28:17;12.60;99.90
27900;DHT22;15243;50.726;7.080;2023-04-08T11:30:44;12.60;99.90
27900;DHT22;15243;50.726;7.080;2023-04-08T11:33:12;12.40;99.90
27900;DHT22;15243;50.726;7.080;2023-04-08T11:35:40;12.80;99.90
27900;DHT22;15243;50.726;7.080;2023-04-08T11:38:08;12.60;99.90
27900;DHT22;15243;50.726;7.080;2023-04-08T11:40:36;12.80;99.90
27900;DHT22;15243;50.726;7.080;2023-04-08T11:43:11;13.10;99.90
27900;DHT22;15243;50.726;7.080;2023-04-08T11:45:38;13.00;99.90
27900;DHT22;15243;50.726;7.080;2023-04-08T11:48:14;13.00;99.90
27900;DHT22;15243;50.726;7.080;2023-04-08T11:50:43;12.80;99.90
27900;DHT22;15243;50.726;7.080;2023-04-08T11:53:20;12.40;99.90
27900;DHT22;15243;50.726;7.080;2023-04-08T11:55:47;12.30;99.90
27900;DHT22;15243;50.726;7.080;2023-04-08T11:58:15;12.10;99.90
27900;DHT22;15243;50.726;7.080;2023-04-08T12:00:42;12.00;99.90
27900;DHT22;15243;50.726;7.080;2023-04-08T12:03:10;11.80;99.90
27900;DHT22;15243;50.726;7.080;2023-04-08T12:05:38;11.90;99.90
27900;DHT22;15243;50.726;7.080;2023-04-08T12:08:05;12.00;99.90
27900;DHT22;15243;50.726;7.080;2023-04-08T12:10:32;12.00;99.90
27900;DHT22;15243;50.726;7.080;2023-04-08T12:12:58;11.80;99.90
27900;DHT22;15243;50.726;7.080;2023-04-08T12:15:26;11.70;99.90
27900;DHT22;15243;50.726;7.080;2023-04-08T12:17:53;11.60;99.90
27900;DHT22;15243;50.726;7.080;2023-04-08T12:20:20;11.70;99.90
27900;DHT22;15243;50.726;7.080;2023-04-08T12:22:46;11.70;99.90
27900;DHT22;15243;50.726;7.080;2023-04-08T12:25:13;11.70;99.90
27900;DHT22;15243;50.726;7.080;2023-04-08T12:27:40;11.70;99.90
27900;DHT22;15243;50.726;7.080;2023-04-08T12:30:08;11.70;99.90
27900;DHT22;15243;50.726;7.080;2023-04-08T12:32:35;11.60;99.90
27900;DHT22;15243;50.726;7.080;2023-04-08T12:35:02;11.60;99.90
27900;DHT22;15243;50.726;7.080;2023-04-08T12:37:29;11.50;99.90
27900;DHT22;15243;50.726;7.080;2023-04-08T12:39:56;11.50;99.90
27900;DHT22;15243;50.726;7.080;2023-04-08T12:42:23;11.70;99.90
27900;DHT22;15243;50.726;7.080;2023-04-08T12:44:50;11.60;99.90
27900;DHT22;15243;50.726;7.080;2023-04-08T12:47:17;11.60;99.90
27900;DHT22;15243;50.726;7.080;2023-04-08T12:49:45;11.70;99.90
27900;DHT22;15243;50.726;7.080;2023-04-08T12:52:15;11.80;99.90
27900;DHT22;15243;50.726;7.080;2023-04-08T12:54:43;11.90;99.90
27900;DHT22;15243;50.726;7.080;2023-04-08T12:57:10;12.10;99.90
27900;DHT22;15243;50.726;7.080;2023-04-08T12:59:38;12.10;99.90
27900;DHT22;15243;50.726;7.080;2023-04-08T13:02:06;12.00;99.90
27900;DHT22;15243;50.726;7.080;2023-04-08T13:04:34;12.10;99.90
27900;DHT22;15243;50.726;7.080;2023-04-08T13:07:00;12.10;99.90
27900;DHT22;15243;50.726;7.080;2023-04-08T13:09:28;12.00;99.90
27900;DHT22;15243;50.726;7.080;2023-04-08T13:11:56;12.10;99.90
27900;DHT22;15243;50.726;7.080;2023-04-08T13:14:24;12.10;99.90
27900;DHT22;15243;50.726;7.080;2023-04-08T13:16:51;12.00;99.90
27900;DHT22;15243;50.726;7.080;2023-04-08T13:19:18;12.00;99.90
27900;DHT22;15243;50.726;7.080;2023-04-08T13:21:45;11.90;99.90
27900;DHT22;15243;50.726;7.080;2023-04-08T13:24:12;12.10;99.90
27900;DHT22;15243;50.726;7.080;2023-04-08T13:26:39;12.40;99.90
27900;DHT22;15243;50.726;7.080;2023-04-08T13:29:06;12.50;99.90
27900;DHT22;15243;50.726;7.080;2023-04-08T13:31:34;12.80;99.90
27900;DHT22;15243;50.726;7.080;2023-04-08T13:34:01;12.90;99.90
27900;DHT22;15243;50.726;7.080;2023-04-08T13:36:28;13.10;99.90
27900;DHT22;15243;50.726;7.080;2023-04-08T13:38:55;13.10;99.90
27900;DHT22;15243;50.726;7.080;2023-04-08T13:41:22;13.10;99.90
27900;DHT22;15243;50.726;7.080;2023-04-08T13:43:51;13.30;99.90
27900;DHT22;15243;50.726;7.080;2023-04-08T13:46:18;13.30;99.90
27900;DHT22;15243;50.726;7.080;2023-04-08T13:48:44;13.20;99.90
27900;DHT22;15243;50.726;7.080;2023-04-08T13:51:12;13.20;99.90
27900;DHT22;15243;50.726;7.080;2023-04-08T13:53:39;12.90;99.90
27900;DHT22;15243;50.726;7.080;2023-04-08T13:56:06;12.60;99.90
27900;DHT22;15243;50.726;7.080;2023-04-08T13:58:33;12.70;99.90
27900;DHT22;15243;50.726;7.080;2023-04-08T14:01:00;12.70;99.90
27900;DHT22;15243;50.726;7.080;2023-04-08T14:03:27;13.20;99.90
27900;DHT22;15243;50.726;7.080;2023-04-08T14:05:54;13.30;99.90
27900;DHT22;15243;50.726;7.080;2023-04-08T14:08:21;13.50;99.90
27900;DHT22;15243;50.726;7.080;2023-04-08T14:10:54;13.50;99.90
27900;DHT22;15243;50.726;7.080;2023-04-08T14:13:21;13.30;99.90
27900;DHT22;15243;50.726;7.080;2023-04-08T14:15:48;13.20;99.90
27900;DHT22;15243;50.726;7.080;2023-04-08T14:18:18;13.30;99.90
27900;DHT22;15243;50.726;7.080;2023-04-08T14:20:45;13.30;99.90
27900;DHT22;15243;50.726;7.080;2023-04-08T14:23:12;13.10;99.90
27900;DHT22;15243;50.726;7.080;2023-04-08T14:25:39;13.20;99.90
27900;DHT22;15243;50.726;7.080;2023-04-08T14:28:06;12.90;99.90
27900;DHT22;15243;50.726;7.080;2023-04-08T14:30:36;12.80;99.90
27900;DHT22;15243;50.726;7.080;2023-04-08T14:33:03;12.80;99.90
27900;DHT22;15243;50.726;7.080;2023-04-08T14:35:31;12.90;99.90
27900;DHT22;15243;50.726;7.080;2023-04-08T14:37:58;12.80;99.90
27900;DHT22;15243;50.726;7.080;2023-04-08T14:40:25;12.60;99.90
27900;DHT22;15243;50.726;7.080;2023-04-08T14:42:52;12.50;99.90
27900;DHT22;15243;50.726;7.080;2023-04-08T14:45:19;12.70;99.90
27900;DHT22;15243;50.726;7.080;2023-04-08T14:47:47;12.50;99.90
27900;DHT22;15243;50.726;7.080;2023-04-08T14:50:14;12.40;99.90
27900;DHT22;15243;50.726;7.080;2023-04-08T14:52:41;12.20;99.90
27900;DHT22;15243;50.726;7.080;2023-04-08T14:55:10;12.10;99.90
27900;DHT22;15243;50.726;7.080;2023-04-08T14:57:38;12.10;99.90
27900;DHT22;15243;50.726;7.080;2023-04-08T15:00:05;12.10;99.90
27900;DHT22;15243;50.726;7.080;2023-04-08T15:02:33;12.20;99.90
27900;DHT22;15243;50.726;7.080;2023-04-08T15:05:00;12.20;99.90
27900;DHT22;15243;50.726;7.080;2023-04-08T15:07:27;12.10;99.90
27900;DHT22;15243;50.726;7.080;2023-04-08T15:09:54;12.50;99.90
27900;DHT22;15243;50.726;7.080;2023-04-08T15:12:22;12.60;99.90
27900;DHT22;15243;50.726;7.080;2023-04-08T15:14:50;12.70;99.90
27900;DHT22;15243;50.726;7.080;2023-04-08T15:17:17;12.60;99.90
27900;DHT22;15243;50.726;7.080;2023-04-08T15:19:44;12.80;99.90
27900;DHT22;15243;50.726;7.080;2023-04-08T15:22:12;12.70;99.90
27900;DHT22;15243;50.726;7.080;2023-04-08T15:24:39;13.00;99.90
27900;DHT22;15243;50.726;7.080;2023-04-08T15:27:06;12.80;99.90
27900;DHT22;15243;50.726;7.080;2023-04-08T15:29:33;13.10;99.90
27900;DHT22;15243;50.726;7.080;2023-04-08T15:32:00;13.00;99.90
27900;DHT22;15243;50.726;7.080;2023-04-08T15:34:27;12.80;99.90
27900;DHT22;15243;50.726;7.080;2023-04-08T15:36:54;12.70;99.90
27900;DHT22;15243;50.726;7.080;2023-04-08T15:39:24;12.80;99.90
27900;DHT22;15243;50.726;7.080;2023-04-08T15:41:52;12.70;99.90
27900;DHT22;15243;50.726;7.080;2023-04-08T15:44:19;12.70;99.90
27900;DHT22;15243;50.726;7.080;2023-04-08T15:46:46;12.50;99.90
27900;DHT22;15243;50.726;7.080;2023-04-08T15:49:13;12.60;99.90
27900;DHT22;15243;50.726;7.080;2023-04-08T15:51:40;12.70;99.90
27900;DHT22;15243;50.726;7.080;2023-04-08T15:54:10;12.50;99.90
27900;DHT22;15243;50.726;7.080;2023-04-08T15:56:37;12.60;99.90
27900;DHT22;15243;50.726;7.080;2023-04-08T15:59:04;12.30;99.90
27900;DHT22;15243;50.726;7.080;2023-04-08T16:01:31;12.40;99.90
27900;DHT22;15243;50.726;7.080;2023-04-08T16:03:59;12.30;99.90